createdAt,value
2022-12-03T00:02:16.566Z,38.88
2022-12-03T00:05:18.248Z,40.78
2022-12-03T00:08:23.323Z,36.88
2022-12-03T00:11:24.910Z,41.80
2022-12-03T00:14:26.555Z,38.80
2022-12-03T00:17:28.154Z,33.50
2022-12-03T00:20:29.742Z,38.50
2022-12-03T00:23:31.312Z,35.53
2022-12-03T00:26:32.905Z,37.10
2022-12-03T00:29:34.648Z,35.90
2022-12-03T00:32:36.239Z,38.05
2022-12-03T00:35:37.789Z,33.90
2022-12-03T00:38:42.433Z,37.13
2022-12-03T00:41:43.982Z,36.15
2022-12-03T00:44:45.548Z,38.72
2022-12-03T00:47:47.113Z,36.17
2022-12-03T00:50:48.704Z,35.50
2022-12-03T00:53:50.288Z,34.70
2022-12-03T00:56:51.872Z,35.35
2022-12-03T00:59:53.456Z,36.70
2022-12-03T01:02:55.054Z,37.88
2022-12-03T01:05:56.610Z,37.78
2022-12-03T01:09:01.571Z,40.70
2022-12-03T01:12:03.253Z,37.28
2022-12-03T01:15:05.872Z,38.58
2022-12-03T01:18:07.522Z,39.58
2022-12-03T01:21:09.098Z,37.27
2022-12-03T01:24:13.869Z,38.53
2022-12-03T01:27:15.477Z,42.40
2022-12-03T01:30:17.083Z,37.37
2022-12-03T01:33:18.709Z,38.25
2022-12-03T01:36:24.200Z,37.47
2022-12-03T01:39:25.716Z,40.55
2022-12-03T01:42:37.957Z,37.53
2022-12-03T01:45:39.498Z,42.63
2022-12-03T01:48:41.111Z,39.67
2022-12-03T01:51:42.708Z,40.97
2022-12-03T01:55:05.641Z,38.60
2022-12-03T01:58:08.590Z,49.85
2022-12-03T02:01:17.975Z,53.03
2022-12-03T02:04:19.672Z,56.53
2022-12-03T02:07:29.297Z,55.75
2022-12-03T02:10:34.993Z,58.63
2022-12-03T02:13:36.702Z,58.53
2022-12-03T02:16:38.369Z,66.35
2022-12-03T02:19:44.148Z,61.72
2022-12-03T02:22:54.546Z,76.13
2022-12-03T02:25:56.167Z,76.07
2022-12-03T02:28:57.733Z,68.47
2022-12-03T02:31:59.404Z,82.18
2022-12-03T02:35:04.584Z,63.57
2022-12-03T02:38:12.729Z,63.15
2022-12-03T02:41:34.796Z,76.55
2022-12-03T02:44:36.381Z,72.27
2022-12-03T02:47:49.767Z,66.50
2022-12-03T02:51:02.718Z,72.97
2022-12-03T02:54:04.328Z,73.55
2022-12-03T02:57:05.923Z,62.63
2022-12-03T03:00:08.762Z,68.22
2022-12-03T03:03:10.408Z,53.42
2022-12-03T03:06:15.019Z,77.10
2022-12-03T03:09:16.657Z,60.20
2022-12-03T03:12:18.224Z,63.85
2022-12-03T03:15:19.962Z,57.50
2022-12-03T03:18:21.530Z,57.35
2022-12-03T03:21:27.277Z,72.15
2022-12-03T03:24:28.825Z,89.90
2022-12-03T03:27:30.400Z,66.95
2022-12-03T03:30:32.634Z,62.13
2022-12-03T03:33:34.291Z,64.75
2022-12-03T03:36:38.612Z,66.37
2022-12-03T03:39:40.186Z,50.28
2022-12-03T03:42:41.859Z,68.55
2022-12-03T03:45:43.563Z,75.33
2022-12-03T03:48:45.290Z,63.92
2022-12-03T03:51:49.939Z,62.30
2022-12-03T03:54:51.780Z,61.45
2022-12-03T03:57:53.678Z,62.97
2022-12-03T04:00:55.285Z,53.80
2022-12-03T04:03:57.533Z,67.53
2022-12-03T04:07:03.098Z,60.10
2022-12-03T04:10:25.192Z,51.97
2022-12-03T04:13:27.036Z,46.97
2022-12-03T04:16:28.760Z,52.80
2022-12-03T04:19:30.411Z,49.28
2022-12-03T04:22:40.731Z,56.75
2022-12-03T04:26:00.927Z,50.35
2022-12-03T04:29:02.548Z,61.22
2022-12-03T04:32:22.883Z,57.40
2022-12-03T04:35:42.491Z,59.65
2022-12-03T04:38:44.126Z,55.67
2022-12-03T04:41:45.731Z,56.40
2022-12-03T04:44:47.288Z,49.28
2022-12-03T04:47:48.958Z,47.13
2022-12-03T04:50:50.757Z,54.25
2022-12-03T04:53:52.333Z,53.17
2022-12-03T04:56:53.949Z,55.17
2022-12-03T04:59:55.560Z,49.53
2022-12-03T05:02:57.177Z,55.55
2022-12-03T05:05:58.840Z,51.00
2022-12-03T05:09:00.398Z,48.53
2022-12-03T05:12:01.986Z,51.45
2022-12-03T05:15:06.269Z,48.33
2022-12-03T05:18:07.860Z,52.70
2022-12-03T05:21:09.456Z,49.78
2022-12-03T05:24:11.086Z,51.53
2022-12-03T05:27:12.727Z,53.40
2022-12-03T05:30:14.684Z,48.90
2022-12-03T05:33:16.554Z,53.17
2022-12-03T05:36:18.533Z,51.72
2022-12-03T05:39:20.131Z,50.40
2022-12-03T05:42:40.020Z,56.53
2022-12-03T05:45:42.579Z,52.08
2022-12-03T05:48:44.317Z,55.33
2022-12-03T05:51:45.967Z,60.55
2022-12-03T05:54:47.570Z,48.13
2022-12-03T05:57:51.933Z,61.92
2022-12-03T06:00:53.517Z,55.35
2022-12-03T06:03:55.192Z,58.20
2022-12-03T06:06:56.884Z,59.78
2022-12-03T06:09:58.507Z,65.53
2022-12-03T06:13:00.982Z,35.03
2022-12-03T06:16:02.722Z,57.03
2022-12-03T06:19:04.375Z,60.63
2022-12-03T06:22:05.996Z,50.38
2022-12-03T06:25:15.446Z,61.33
2022-12-03T06:28:17.037Z,54.55
2022-12-03T06:31:18.692Z,54.22
2022-12-03T06:34:20.478Z,47.25
2022-12-03T06:37:22.143Z,49.30
2022-12-03T06:40:24.869Z,54.37
2022-12-03T06:43:26.448Z,52.40
2022-12-03T06:46:28.124Z,53.00
2022-12-03T06:49:29.748Z,51.57
2022-12-03T06:52:31.346Z,53.13
2022-12-03T06:55:32.920Z,64.72
2022-12-03T06:58:38.302Z,54.45
2022-12-03T07:01:39.985Z,52.78
2022-12-03T07:04:46.096Z,71.97
2022-12-03T07:07:52.447Z,61.10
2022-12-03T07:10:54.410Z,57.27
2022-12-03T07:14:05.126Z,71.47
2022-12-03T07:17:07.339Z,56.60
2022-12-03T07:20:09.240Z,51.20
2022-12-03T07:23:10.817Z,60.00
2022-12-03T07:26:12.566Z,53.65
2022-12-03T07:29:14.207Z,77.85
2022-12-03T07:32:15.822Z,80.15
2022-12-03T07:35:17.520Z,73.82
2022-12-03T07:38:19.138Z,67.57
2022-12-03T07:41:23.957Z,77.63
2022-12-03T07:44:25.789Z,94.25
2022-12-03T07:47:27.354Z,84.22
2022-12-03T07:50:28.919Z,72.97
2022-12-03T07:53:30.578Z,67.35
2022-12-03T07:56:32.205Z,80.32
2022-12-03T07:59:33.826Z,96.93
2022-12-03T08:02:35.548Z,66.73
2022-12-03T08:05:37.251Z,65.85
2022-12-03T08:08:38.951Z,74.28
2022-12-03T08:11:40.826Z,69.82
2022-12-03T08:14:42.535Z,55.92
2022-12-03T08:17:45.556Z,54.20
2022-12-03T08:20:48.794Z,72.75
2022-12-03T08:23:50.422Z,55.23
2022-12-03T08:26:55.313Z,73.28
2022-12-03T08:30:06.628Z,58.45
2022-12-03T08:33:35.724Z,58.93
2022-12-03T08:36:37.319Z,54.05
2022-12-03T08:39:50.566Z,62.42
2022-12-03T08:42:55.330Z,62.47
2022-12-03T08:45:57.267Z,74.63
2022-12-03T08:48:58.920Z,56.25
2022-12-03T08:52:01.522Z,62.08
2022-12-03T08:55:26.648Z,60.50
2022-12-03T08:58:35.507Z,64.88
2022-12-03T09:01:55.789Z,55.38
2022-12-03T09:04:57.387Z,56.88
2022-12-03T09:07:59.043Z,56.83
2022-12-03T09:11:01.285Z,57.28
2022-12-03T09:14:03.702Z,55.85
2022-12-03T09:17:05.405Z,59.03
2022-12-03T09:20:07.581Z,58.47
2022-12-03T09:23:09.190Z,53.72
2022-12-03T09:26:10.740Z,56.67
2022-12-03T09:29:15.328Z,55.97
2022-12-03T09:32:18.828Z,54.17
2022-12-03T09:35:20.800Z,54.55
2022-12-03T09:38:22.371Z,54.85
2022-12-03T09:41:24.076Z,57.50
2022-12-03T09:44:32.095Z,50.97
2022-12-03T09:47:33.732Z,55.58
2022-12-03T09:50:35.388Z,53.10
2022-12-03T09:53:41.223Z,52.33
2022-12-03T09:56:43.054Z,52.80
2022-12-03T09:59:47.964Z,56.63
2022-12-03T10:02:49.998Z,54.23
2022-12-03T10:05:51.661Z,53.45
2022-12-03T10:08:54.592Z,53.70
2022-12-03T10:11:57.404Z,56.92
2022-12-03T10:15:02.024Z,56.73
2022-12-03T10:18:22.057Z,56.28
2022-12-03T10:21:36.288Z,55.58
2022-12-03T10:24:38.230Z,58.65
2022-12-03T10:27:43.000Z,53.88
2022-12-03T10:30:54.291Z,60.85
2022-12-03T10:33:57.994Z,59.88
2022-12-03T10:37:19.196Z,57.60
2022-12-03T10:40:25.541Z,56.28
2022-12-03T10:43:30.413Z,55.22
2022-12-03T10:46:32.119Z,60.35
2022-12-03T10:49:33.840Z,68.28
2022-12-03T10:52:35.427Z,57.47
2022-12-03T10:55:38.818Z,56.60
2022-12-03T10:58:44.510Z,56.03
2022-12-03T11:01:46.257Z,55.78
2022-12-03T11:04:48.101Z,53.80
2022-12-03T11:07:49.743Z,52.40
2022-12-03T11:11:05.444Z,59.25
2022-12-03T11:14:10.242Z,53.95
2022-12-03T11:17:11.908Z,55.20
2022-12-03T11:20:25.710Z,57.78
2022-12-03T11:23:46.128Z,56.55
2022-12-03T11:26:50.816Z,57.78
2022-12-03T11:30:00.390Z,49.43
2022-12-03T11:33:04.961Z,55.03
2022-12-03T11:36:06.553Z,52.67
2022-12-03T11:39:08.139Z,56.20
2022-12-03T11:42:25.424Z,59.73
2022-12-03T11:45:41.439Z,55.95
2022-12-03T11:48:44.408Z,61.50
2022-12-03T11:51:46.015Z,60.05
2022-12-03T11:54:50.264Z,64.97
2022-12-03T11:58:00.530Z,60.47
2022-12-03T12:01:06.285Z,58.08
2022-12-03T12:04:26.008Z,58.92
2022-12-03T12:07:37.635Z,57.97
2022-12-03T12:10:47.294Z,63.90
2022-12-03T12:13:54.661Z,62.03
2022-12-03T12:16:58.446Z,53.92
2022-12-03T12:20:12.020Z,63.53
2022-12-03T12:23:27.847Z,58.63
2022-12-03T12:26:29.422Z,60.80
2022-12-03T12:29:31.015Z,59.93
2022-12-03T12:33:05.935Z,54.10
2022-12-03T12:36:14.450Z,58.83
2022-12-03T12:39:16.126Z,65.15
2022-12-03T12:42:29.274Z,59.37
2022-12-03T12:45:34.097Z,57.80
2022-12-03T12:48:39.227Z,55.45
2022-12-03T12:51:44.967Z,61.88
2022-12-03T12:54:46.518Z,61.92
2022-12-03T12:57:48.146Z,57.33
2022-12-03T13:00:59.505Z,57.97
2022-12-03T13:04:02.286Z,58.63
2022-12-03T13:07:03.934Z,60.50
2022-12-03T13:10:36.652Z,59.13
2022-12-03T13:13:43.551Z,54.28
2022-12-03T13:16:47.173Z,60.43
2022-12-03T13:20:02.002Z,55.05
2022-12-03T13:23:34.696Z,61.20
2022-12-03T13:26:39.463Z,54.63
2022-12-03T13:29:41.200Z,58.27
2022-12-03T13:32:46.868Z,61.78
2022-12-03T13:35:48.497Z,61.17
2022-12-03T13:38:50.079Z,59.33
2022-12-03T13:42:10.184Z,57.65
2022-12-03T13:45:17.341Z,62.05
2022-12-03T13:48:25.676Z,60.60
2022-12-03T13:51:27.811Z,62.60
2022-12-03T13:54:29.414Z,59.58
2022-12-03T13:57:31.011Z,58.97
2022-12-03T14:00:32.620Z,58.55
2022-12-03T14:03:37.502Z,62.05
2022-12-03T14:06:39.525Z,61.75
2022-12-03T14:09:41.174Z,59.28
2022-12-03T14:12:42.757Z,59.77
2022-12-03T14:15:44.368Z,62.50
2022-12-03T14:18:49.788Z,63.63
2022-12-03T14:21:51.404Z,66.20
2022-12-03T14:24:53.165Z,61.03
2022-12-03T14:27:54.777Z,61.33
2022-12-03T14:30:56.386Z,60.17
2022-12-03T14:34:01.586Z,67.23
2022-12-03T14:37:03.310Z,68.60
2022-12-03T14:40:07.105Z,61.15
2022-12-03T14:43:08.774Z,62.92
2022-12-03T14:46:10.435Z,57.13
2022-12-03T14:49:12.138Z,63.00
2022-12-03T14:52:13.764Z,57.83
2022-12-03T14:55:15.360Z,59.53
2022-12-03T14:58:16.989Z,60.83
2022-12-03T15:01:18.648Z,55.20
2022-12-03T15:04:24.718Z,61.97
2022-12-03T15:07:26.386Z,55.58
2022-12-03T15:10:28.019Z,61.27
2022-12-03T15:13:29.587Z,60.33
2022-12-03T15:16:31.223Z,59.78
2022-12-03T15:19:32.859Z,62.92
2022-12-03T15:22:34.467Z,64.03
2022-12-03T15:25:36.047Z,60.80
2022-12-03T15:28:37.646Z,63.20
2022-12-03T15:31:39.398Z,60.80
2022-12-03T15:34:41.012Z,65.93
2022-12-03T15:37:46.687Z,71.70
2022-12-03T15:40:48.277Z,63.93
2022-12-03T15:43:53.011Z,64.25
2022-12-03T15:46:54.620Z,65.38
2022-12-03T15:49:56.462Z,62.83
2022-12-03T15:53:01.638Z,62.37
2022-12-03T15:56:03.326Z,60.30
2022-12-03T15:59:04.908Z,60.30
2022-12-03T16:02:06.740Z,62.95
2022-12-03T16:05:14.716Z,57.10
2022-12-03T16:08:16.366Z,63.88
2022-12-03T16:11:17.972Z,56.83
2022-12-03T16:14:20.450Z,62.17
2022-12-03T16:17:22.084Z,67.40
2022-12-03T16:20:23.862Z,66.65
2022-12-03T16:23:25.880Z,68.75
2022-12-03T16:26:27.883Z,71.82
2022-12-03T16:29:29.512Z,64.50
2022-12-03T16:32:31.147Z,66.32
2022-12-03T16:35:35.610Z,60.83
2022-12-03T16:38:37.230Z,60.90
2022-12-03T16:41:39.499Z,67.82
2022-12-03T16:44:58.131Z,67.53
2022-12-03T16:48:00.967Z,63.38
2022-12-03T16:51:06.764Z,67.22
2022-12-03T16:54:08.336Z,59.92
2022-12-03T16:57:09.982Z,62.43
2022-12-03T17:00:12.032Z,62.63
2022-12-03T17:03:13.715Z,60.65
2022-12-03T17:06:19.933Z,58.28
2022-12-03T17:09:21.514Z,54.40
2022-12-03T17:12:23.114Z,56.50
2022-12-03T17:15:24.684Z,53.70
2022-12-03T17:18:26.516Z,54.45
2022-12-03T17:21:32.129Z,50.00
2022-12-03T17:24:36.368Z,52.60
2022-12-03T17:27:43.465Z,53.25
2022-12-03T17:30:47.107Z,52.70
2022-12-03T17:33:48.754Z,55.17
2022-12-03T17:36:50.308Z,53.75
2022-12-03T17:39:52.235Z,57.08
2022-12-03T17:42:54.107Z,57.10
2022-12-03T17:45:55.707Z,51.10
2022-12-03T17:48:57.310Z,55.40
2022-12-03T17:52:00.816Z,59.20
2022-12-03T17:55:11.904Z,54.15
2022-12-03T17:58:16.066Z,56.50
2022-12-03T18:01:17.694Z,67.07
2022-12-03T18:04:19.462Z,54.60
2022-12-03T18:07:21.050Z,60.80
2022-12-03T18:10:27.123Z,59.03
2022-12-03T18:13:28.668Z,64.27
2022-12-03T18:16:30.355Z,59.63
2022-12-03T18:19:31.947Z,53.22
2022-12-03T18:22:37.451Z,59.93
2022-12-03T18:25:42.979Z,58.25
2022-12-03T18:28:44.550Z,60.88
2022-12-03T18:31:46.252Z,64.25
2022-12-03T18:34:48.036Z,60.28
2022-12-03T18:37:55.132Z,53.78
2022-12-03T18:40:56.756Z,60.03
2022-12-03T18:43:58.377Z,62.17
2022-12-03T18:47:00.109Z,63.28
2022-12-03T18:50:01.797Z,59.05
2022-12-03T18:53:06.500Z,58.92
2022-12-03T18:56:08.173Z,58.25
2022-12-03T18:59:09.862Z,58.45
2022-12-03T19:02:32.497Z,54.45
2022-12-03T19:05:36.999Z,56.20
2022-12-03T19:08:41.281Z,56.90
2022-12-03T19:11:42.899Z,58.90
2022-12-03T19:14:44.596Z,59.13
2022-12-03T19:17:49.605Z,58.53
2022-12-03T19:20:51.279Z,60.33
2022-12-03T19:24:22.819Z,57.75
2022-12-03T19:27:14.446Z,59.85
2022-12-03T19:30:16.289Z,58.72
2022-12-03T19:33:18.275Z,53.70
2022-12-03T19:36:27.744Z,57.40
2022-12-03T19:39:29.303Z,57.42
2022-12-03T19:42:31.275Z,60.08
2022-12-03T19:45:32.898Z,59.97
2022-12-03T19:48:34.999Z,61.92
2022-12-03T19:51:36.774Z,60.28
2022-12-03T19:54:38.375Z,56.72
2022-12-03T19:57:39.990Z,58.37
2022-12-03T20:00:41.550Z,61.13
2022-12-03T20:03:44.607Z,57.88
2022-12-03T20:06:47.546Z,59.67
2022-12-03T20:09:52.273Z,62.88
2022-12-03T20:12:57.474Z,58.45
2022-12-03T20:16:03.325Z,66.65
2022-12-03T20:19:06.163Z,61.95
2022-12-03T20:22:07.847Z,65.15
2022-12-03T20:25:16.853Z,64.22
2022-12-03T20:28:21.463Z,70.57
2022-12-03T20:31:24.987Z,66.78
2022-12-03T20:34:26.635Z,75.00
2022-12-03T20:37:28.235Z,68.67
2022-12-03T20:40:29.813Z,66.57
2022-12-03T20:43:34.618Z,65.63
2022-12-03T20:46:36.410Z,65.80
2022-12-03T20:49:39.120Z,65.22
2022-12-03T20:52:48.457Z,75.65
2022-12-03T20:56:03.869Z,64.13
2022-12-03T20:59:06.887Z,63.57
2022-12-03T21:02:09.703Z,63.17
2022-12-03T21:05:11.418Z,62.92
2022-12-03T21:08:13.101Z,68.95
2022-12-03T21:11:24.205Z,71.90
2022-12-03T21:14:26.161Z,72.65
2022-12-03T21:17:27.791Z,67.95
2022-12-03T21:20:29.369Z,69.07
2022-12-03T21:23:31.221Z,74.57
2022-12-03T21:26:35.636Z,65.93
2022-12-03T21:29:37.340Z,64.67
2022-12-03T21:32:38.883Z,67.68
2022-12-03T21:35:40.452Z,65.43
2022-12-03T21:38:42.110Z,67.93
2022-12-03T21:42:19.199Z,67.10
2022-12-03T21:45:05.930Z,64.38
2022-12-03T21:48:07.533Z,62.58
2022-12-03T21:51:11.166Z,65.83
2022-12-03T21:54:12.730Z,62.47
2022-12-03T21:57:14.303Z,63.90
2022-12-03T22:00:16.207Z,56.53
2022-12-03T22:03:17.905Z,60.00
2022-12-03T22:06:19.724Z,72.65
2022-12-03T22:09:26.293Z,67.15
2022-12-03T22:12:28.397Z,62.22
2022-12-03T22:15:31.186Z,63.75
2022-12-03T22:18:32.962Z,65.30
2022-12-03T22:21:35.669Z,61.27
2022-12-03T22:24:37.298Z,60.53
2022-12-03T22:27:41.771Z,65.72
2022-12-03T22:30:43.371Z,61.77
2022-12-03T22:33:48.309Z,62.90
2022-12-03T22:36:50.175Z,68.18
2022-12-03T22:39:51.783Z,67.30
2022-12-03T22:42:56.742Z,61.55
2022-12-03T22:45:58.371Z,59.40
2022-12-03T22:49:06.425Z,63.90
2022-12-03T22:52:09.024Z,64.43
2022-12-03T22:55:10.605Z,64.45
2022-12-03T22:58:12.230Z,67.13
2022-12-03T23:01:34.282Z,62.25
2022-12-03T23:04:35.891Z,61.75
2022-12-03T23:07:37.578Z,67.32
2022-12-03T23:10:47.719Z,67.60
2022-12-03T23:13:52.787Z,70.33
2022-12-03T23:16:54.361Z,67.35
2022-12-03T23:19:56.245Z,70.70
2022-12-03T23:22:58.117Z,64.90
2022-12-03T23:26:09.373Z,71.13
2022-12-03T23:29:14.047Z,66.93
2022-12-03T23:32:15.943Z,63.60
2022-12-03T23:35:17.653Z,65.28
2022-12-03T23:38:19.419Z,72.97
2022-12-03T23:41:21.674Z,70.85
2022-12-03T23:44:23.264Z,69.87
2022-12-03T23:47:24.822Z,63.63
2022-12-03T23:50:26.816Z,72.55
2022-12-03T23:53:29.215Z,66.55
2022-12-03T23:56:31.011Z,65.60
2022-12-03T23:59:32.705Z,70.72
